Terminal Aerodrome Forecast
Issued by NWS

Current Version | Previous Version | Text Only | Print | Product List | Glossary On
Versions: 1 2 3 4 5 6 7 8 9 10 11 12 13 14
309
FTUS45 KFGZ 262332
TAFGCN
TAF
KGCN 262332Z 2700/2724 22020G33KT P6SM FEW250
     FM270230 23008KT P6SM SKC
     FM270600 VRB03KT P6SM SKC
     FM271800 24010KT P6SM SKC=

USA.gov is the U.S. government's official web portal to all federal, state and local government web resources and services.